sensor_id;sensor_type;location;lat;lon;timestamp;P1;durP1;ratioP1;P2;durP2;ratioP2
21168;SDS011;10742;51.816;8.662;2022-12-07T00:01:19;27.83;;;11.77;;
21168;SDS011;10742;51.816;8.662;2022-12-07T00:04:43;27.73;;;12.73;;
21168;SDS011;10742;51.816;8.662;2022-12-07T00:08:05;28.57;;;12.70;;
21168;SDS011;10742;51.816;8.662;2022-12-07T00:11:27;29.50;;;13.17;;
21168;SDS011;10742;51.816;8.662;2022-12-07T00:14:49;30.70;;;13.47;;
21168;SDS011;10742;51.816;8.662;2022-12-07T00:18:10;29.87;;;13.37;;
21168;SDS011;10742;51.816;8.662;2022-12-07T00:21:35;29.30;;;13.70;;
21168;SDS011;10742;51.816;8.662;2022-12-07T00:24:57;30.13;;;13.93;;
21168;SDS011;10742;51.816;8.662;2022-12-07T00:28:18;28.27;;;14.03;;
21168;SDS011;10742;51.816;8.662;2022-12-07T00:31:39;28.73;;;13.57;;
21168;SDS011;10742;51.816;8.662;2022-12-07T00:35:02;32.47;;;14.67;;
21168;SDS011;10742;51.816;8.662;2022-12-07T00:38:23;31.53;;;14.37;;
21168;SDS011;10742;51.816;8.662;2022-12-07T00:41:47;30.17;;;15.13;;
21168;SDS011;10742;51.816;8.662;2022-12-07T00:45:09;33.33;;;15.27;;
21168;SDS011;10742;51.816;8.662;2022-12-07T00:48:30;30.40;;;14.57;;
21168;SDS011;10742;51.816;8.662;2022-12-07T00:51:52;30.50;;;14.30;;
21168;SDS011;10742;51.816;8.662;2022-12-07T00:55:14;30.70;;;14.50;;
21168;SDS011;10742;51.816;8.662;2022-12-07T00:58:35;34.60;;;15.03;;
21168;SDS011;10742;51.816;8.662;2022-12-07T01:01:57;32.80;;;15.30;;
21168;SDS011;10742;51.816;8.662;2022-12-07T01:05:19;30.90;;;14.03;;
21168;SDS011;10742;51.816;8.662;2022-12-07T01:08:40;29.90;;;15.20;;
21168;SDS011;10742;51.816;8.662;2022-12-07T01:12:02;32.13;;;15.10;;
21168;SDS011;10742;51.816;8.662;2022-12-07T01:15:24;31.33;;;14.90;;
21168;SDS011;10742;51.816;8.662;2022-12-07T01:18:46;31.27;;;15.23;;
21168;SDS011;10742;51.816;8.662;2022-12-07T01:22:09;30.63;;;14.87;;
21168;SDS011;10742;51.816;8.662;2022-12-07T01:25:30;29.60;;;14.17;;
21168;SDS011;10742;51.816;8.662;2022-12-07T01:28:52;27.77;;;14.13;;
21168;SDS011;10742;51.816;8.662;2022-12-07T01:32:15;31.10;;;13.60;;
21168;SDS011;10742;51.816;8.662;2022-12-07T01:35:37;29.07;;;13.33;;
21168;SDS011;10742;51.816;8.662;2022-12-07T01:38:59;28.37;;;13.43;;
21168;SDS011;10742;51.816;8.662;2022-12-07T01:42:22;29.03;;;12.60;;
21168;SDS011;10742;51.816;8.662;2022-12-07T01:45:44;26.37;;;12.43;;
21168;SDS011;10742;51.816;8.662;2022-12-07T01:49:06;28.10;;;13.27;;
21168;SDS011;10742;51.816;8.662;2022-12-07T01:52:31;26.17;;;12.70;;
21168;SDS011;10742;51.816;8.662;2022-12-07T01:55:55;26.87;;;12.40;;
21168;SDS011;10742;51.816;8.662;2022-12-07T01:59:18;25.70;;;12.10;;
21168;SDS011;10742;51.816;8.662;2022-12-07T02:06:22;23.13;;;10.93;;
21168;SDS011;10742;51.816;8.662;2022-12-07T02:09:46;25.47;;;11.57;;
21168;SDS011;10742;51.816;8.662;2022-12-07T02:13:18;24.10;;;11.27;;
21168;SDS011;10742;51.816;8.662;2022-12-07T02:17:01;24.40;;;11.73;;
21168;SDS011;10742;51.816;8.662;2022-12-07T02:39:44;21.37;;;10.13;;
21168;SDS011;10742;51.816;8.662;2022-12-07T02:46:54;22.13;;;10.10;;
21168;SDS011;10742;51.816;8.662;2022-12-07T02:50:20;24.07;;;9.90;;
21168;SDS011;10742;51.816;8.662;2022-12-07T02:53:42;21.23;;;9.60;;
21168;SDS011;10742;51.816;8.662;2022-12-07T03:11:47;20.73;;;8.33;;
21168;SDS011;10742;51.816;8.662;2022-12-07T03:15:18;18.70;;;7.97;;
21168;SDS011;10742;51.816;8.662;2022-12-07T03:18:48;19.30;;;8.00;;
21168;SDS011;10742;51.816;8.662;2022-12-07T03:22:25;15.40;;;7.20;;
21168;SDS011;10742;51.816;8.662;2022-12-07T03:25:51;18.40;;;7.57;;
21168;SDS011;10742;51.816;8.662;2022-12-07T03:29:21;15.37;;;7.00;;
21168;SDS011;10742;51.816;8.662;2022-12-07T03:40:19;13.30;;;6.70;;
21168;SDS011;10742;51.816;8.662;2022-12-07T03:43:51;13.00;;;5.97;;
21168;SDS011;10742;51.816;8.662;2022-12-07T03:54:40;13.03;;;5.77;;
21168;SDS011;10742;51.816;8.662;2022-12-07T03:58:23;12.67;;;5.60;;
21168;SDS011;10742;51.816;8.662;2022-12-07T04:01:51;15.20;;;5.40;;
21168;SDS011;10742;51.816;8.662;2022-12-07T04:05:17;14.90;;;5.33;;
21168;SDS011;10742;51.816;8.662;2022-12-07T04:08:38;13.77;;;5.10;;
21168;SDS011;10742;51.816;8.662;2022-12-07T04:12:00;13.13;;;5.20;;
21168;SDS011;10742;51.816;8.662;2022-12-07T04:15:21;13.43;;;5.60;;
21168;SDS011;10742;51.816;8.662;2022-12-07T04:18:43;11.60;;;5.00;;
21168;SDS011;10742;51.816;8.662;2022-12-07T04:22:05;12.57;;;4.93;;
21168;SDS011;10742;51.816;8.662;2022-12-07T04:25:27;20.23;;;5.50;;
21168;SDS011;10742;51.816;8.662;2022-12-07T04:28:48;13.83;;;5.30;;
21168;SDS011;10742;51.816;8.662;2022-12-07T04:32:10;13.17;;;5.33;;
21168;SDS011;10742;51.816;8.662;2022-12-07T04:35:31;13.53;;;5.07;;
21168;SDS011;10742;51.816;8.662;2022-12-07T04:38:54;12.53;;;4.37;;
21168;SDS011;10742;51.816;8.662;2022-12-07T04:42:16;12.57;;;5.13;;
21168;SDS011;10742;51.816;8.662;2022-12-07T04:45:37;15.53;;;5.23;;
21168;SDS011;10742;51.816;8.662;2022-12-07T04:48:59;15.67;;;5.17;;
21168;SDS011;10742;51.816;8.662;2022-12-07T04:52:20;10.60;;;4.87;;
21168;SDS011;10742;51.816;8.662;2022-12-07T04:55:42;13.40;;;5.27;;
21168;SDS011;10742;51.816;8.662;2022-12-07T04:59:04;16.90;;;5.17;;
21168;SDS011;10742;51.816;8.662;2022-12-07T05:02:25;14.43;;;5.83;;
21168;SDS011;10742;51.816;8.662;2022-12-07T05:05:47;16.13;;;6.47;;
21168;SDS011;10742;51.816;8.662;2022-12-07T05:09:08;13.33;;;5.67;;
21168;SDS011;10742;51.816;8.662;2022-12-07T05:12:29;16.90;;;6.30;;
21168;SDS011;10742;51.816;8.662;2022-12-07T05:15:51;16.93;;;6.23;;
21168;SDS011;10742;51.816;8.662;2022-12-07T05:19:12;13.07;;;6.13;;
21168;SDS011;10742;51.816;8.662;2022-12-07T05:22:34;17.77;;;6.70;;
21168;SDS011;10742;51.816;8.662;2022-12-07T05:25:55;17.03;;;6.87;;
21168;SDS011;10742;51.816;8.662;2022-12-07T05:29:17;17.50;;;7.23;;
21168;SDS011;10742;51.816;8.662;2022-12-07T05:32:38;22.77;;;7.47;;
21168;SDS011;10742;51.816;8.662;2022-12-07T05:36:00;24.23;;;8.90;;
21168;SDS011;10742;51.816;8.662;2022-12-07T05:39:25;17.13;;;7.23;;
21168;SDS011;10742;51.816;8.662;2022-12-07T05:42:47;22.03;;;8.07;;
21168;SDS011;10742;51.816;8.662;2022-12-07T05:46:08;16.33;;;7.27;;
21168;SDS011;10742;51.816;8.662;2022-12-07T05:49:30;19.97;;;7.00;;
21168;SDS011;10742;51.816;8.662;2022-12-07T05:52:52;19.20;;;7.87;;
21168;SDS011;10742;51.816;8.662;2022-12-07T05:56:13;17.47;;;7.30;;
21168;SDS011;10742;51.816;8.662;2022-12-07T05:59:34;18.87;;;7.27;;
21168;SDS011;10742;51.816;8.662;2022-12-07T06:02:56;16.67;;;6.90;;
21168;SDS011;10742;51.816;8.662;2022-12-07T06:06:18;16.77;;;7.57;;
21168;SDS011;10742;51.816;8.662;2022-12-07T06:09:40;15.90;;;6.93;;
21168;SDS011;10742;51.816;8.662;2022-12-07T06:13:01;20.00;;;7.00;;
21168;SDS011;10742;51.816;8.662;2022-12-07T06:16:23;18.13;;;6.93;;
21168;SDS011;10742;51.816;8.662;2022-12-07T06:19:44;19.20;;;7.03;;
21168;SDS011;10742;51.816;8.662;2022-12-07T06:23:05;17.27;;;6.53;;
21168;SDS011;10742;51.816;8.662;2022-12-07T06:26:27;19.83;;;6.90;;
21168;SDS011;10742;51.816;8.662;2022-12-07T06:29:48;18.70;;;6.77;;
21168;SDS011;10742;51.816;8.662;2022-12-07T06:33:10;15.07;;;6.43;;
21168;SDS011;10742;51.816;8.662;2022-12-07T06:36:31;17.30;;;6.70;;
21168;SDS011;10742;51.816;8.662;2022-12-07T06:39:53;16.77;;;6.70;;
21168;SDS011;10742;51.816;8.662;2022-12-07T06:43:14;19.13;;;6.77;;
21168;SDS011;10742;51.816;8.662;2022-12-07T06:46:35;19.03;;;7.07;;
21168;SDS011;10742;51.816;8.662;2022-12-07T06:49:57;18.37;;;6.47;;
21168;SDS011;10742;51.816;8.662;2022-12-07T06:53:18;16.23;;;6.33;;
21168;SDS011;10742;51.816;8.662;2022-12-07T06:56:39;16.33;;;6.50;;
21168;SDS011;10742;51.816;8.662;2022-12-07T07:00:02;17.93;;;6.90;;
21168;SDS011;10742;51.816;8.662;2022-12-07T07:03:24;19.87;;;6.80;;
21168;SDS011;10742;51.816;8.662;2022-12-07T07:06:46;16.10;;;6.40;;
21168;SDS011;10742;51.816;8.662;2022-12-07T07:10:08;19.73;;;6.53;;
21168;SDS011;10742;51.816;8.662;2022-12-07T07:13:30;17.70;;;6.10;;
21168;SDS011;10742;51.816;8.662;2022-12-07T07:16:52;18.67;;;6.00;;
21168;SDS011;10742;51.816;8.662;2022-12-07T07:20:13;20.83;;;7.43;;
21168;SDS011;10742;51.816;8.662;2022-12-07T07:23:34;20.20;;;6.00;;
21168;SDS011;10742;51.816;8.662;2022-12-07T07:26:56;19.00;;;5.83;;
21168;SDS011;10742;51.816;8.662;2022-12-07T07:30:17;19.70;;;6.50;;
21168;SDS011;10742;51.816;8.662;2022-12-07T07:33:39;17.17;;;6.20;;
21168;SDS011;10742;51.816;8.662;2022-12-07T07:37:01;18.93;;;6.20;;
21168;SDS011;10742;51.816;8.662;2022-12-07T07:40:23;16.73;;;5.37;;
21168;SDS011;10742;51.816;8.662;2022-12-07T07:43:45;17.93;;;5.80;;
21168;SDS011;10742;51.816;8.662;2022-12-07T07:47:06;16.07;;;5.83;;
21168;SDS011;10742;51.816;8.662;2022-12-07T07:50:28;15.30;;;5.73;;
21168;SDS011;10742;51.816;8.662;2022-12-07T07:53:49;15.07;;;5.80;;
21168;SDS011;10742;51.816;8.662;2022-12-07T07:57:10;18.83;;;5.70;;
21168;SDS011;10742;51.816;8.662;2022-12-07T08:00:31;17.10;;;5.97;;
21168;SDS011;10742;51.816;8.662;2022-12-07T08:03:53;18.20;;;6.00;;
21168;SDS011;10742;51.816;8.662;2022-12-07T08:07:14;16.23;;;5.23;;
21168;SDS011;10742;51.816;8.662;2022-12-07T08:10:37;17.80;;;5.57;;
21168;SDS011;10742;51.816;8.662;2022-12-07T08:13:59;16.10;;;5.47;;
21168;SDS011;10742;51.816;8.662;2022-12-07T08:17:21;14.97;;;5.20;;
21168;SDS011;10742;51.816;8.662;2022-12-07T08:20:43;18.07;;;5.47;;
21168;SDS011;10742;51.816;8.662;2022-12-07T08:24:05;18.20;;;5.10;;
21168;SDS011;10742;51.816;8.662;2022-12-07T08:27:27;17.90;;;5.43;;
21168;SDS011;10742;51.816;8.662;2022-12-07T08:30:49;13.30;;;5.10;;
21168;SDS011;10742;51.816;8.662;2022-12-07T08:34:11;17.70;;;5.37;;
21168;SDS011;10742;51.816;8.662;2022-12-07T08:37:32;15.47;;;5.00;;
21168;SDS011;10742;51.816;8.662;2022-12-07T08:40:54;15.60;;;5.33;;
21168;SDS011;10742;51.816;8.662;2022-12-07T08:44:19;16.40;;;5.17;;
21168;SDS011;10742;51.816;8.662;2022-12-07T08:47:42;15.87;;;5.37;;
21168;SDS011;10742;51.816;8.662;2022-12-07T08:51:11;15.63;;;5.43;;
21168;SDS011;10742;51.816;8.662;2022-12-07T08:54:34;13.37;;;5.10;;
21168;SDS011;10742;51.816;8.662;2022-12-07T08:57:57;18.13;;;5.27;;
21168;SDS011;10742;51.816;8.662;2022-12-07T09:01:20;12.23;;;4.23;;
21168;SDS011;10742;51.816;8.662;2022-12-07T09:04:42;13.93;;;4.87;;
21168;SDS011;10742;51.816;8.662;2022-12-07T09:08:04;13.83;;;4.77;;
21168;SDS011;10742;51.816;8.662;2022-12-07T09:11:25;14.53;;;4.67;;
21168;SDS011;10742;51.816;8.662;2022-12-07T09:14:48;15.37;;;4.27;;
21168;SDS011;10742;51.816;8.662;2022-12-07T09:18:09;18.07;;;4.40;;
21168;SDS011;10742;51.816;8.662;2022-12-07T09:21:30;13.60;;;4.40;;
21168;SDS011;10742;51.816;8.662;2022-12-07T09:24:52;14.13;;;3.73;;
21168;SDS011;10742;51.816;8.662;2022-12-07T09:28:14;13.97;;;4.00;;
21168;SDS011;10742;51.816;8.662;2022-12-07T09:31:35;14.53;;;4.47;;
21168;SDS011;10742;51.816;8.662;2022-12-07T09:34:57;15.10;;;4.00;;
21168;SDS011;10742;51.816;8.662;2022-12-07T09:38:19;10.40;;;3.80;;
21168;SDS011;10742;51.816;8.662;2022-12-07T09:41:42;11.20;;;3.70;;
21168;SDS011;10742;51.816;8.662;2022-12-07T09:45:06;8.77;;;3.43;;
21168;SDS011;10742;51.816;8.662;2022-12-07T09:48:33;14.17;;;4.30;;
21168;SDS011;10742;51.816;8.662;2022-12-07T09:55:36;11.43;;;4.13;;
21168;SDS011;10742;51.816;8.662;2022-12-07T09:59:01;18.77;;;5.97;;
21168;SDS011;10742;51.816;8.662;2022-12-07T10:02:25;13.47;;;3.97;;
21168;SDS011;10742;51.816;8.662;2022-12-07T10:05:56;15.63;;;4.07;;
21168;SDS011;10742;51.816;8.662;2022-12-07T10:09:20;16.03;;;3.90;;
21168;SDS011;10742;51.816;8.662;2022-12-07T10:12:53;13.63;;;4.17;;
21168;SDS011;10742;51.816;8.662;2022-12-07T10:19:45;12.00;;;3.80;;
21168;SDS011;10742;51.816;8.662;2022-12-07T10:23:11;11.17;;;3.63;;
21168;SDS011;10742;51.816;8.662;2022-12-07T10:26:37;8.97;;;3.43;;
21168;SDS011;10742;51.816;8.662;2022-12-07T10:30:02;12.67;;;3.70;;
21168;SDS011;10742;51.816;8.662;2022-12-07T10:33:36;12.87;;;3.50;;
21168;SDS011;10742;51.816;8.662;2022-12-07T10:37:20;10.67;;;3.63;;
21168;SDS011;10742;51.816;8.662;2022-12-07T10:40:46;13.43;;;3.67;;
21168;SDS011;10742;51.816;8.662;2022-12-07T10:44:08;13.33;;;3.60;;
21168;SDS011;10742;51.816;8.662;2022-12-07T10:47:52;17.40;;;3.37;;
21168;SDS011;10742;51.816;8.662;2022-12-07T10:55:25;13.40;;;3.80;;
21168;SDS011;10742;51.816;8.662;2022-12-07T11:06:36;13.50;;;3.60;;
21168;SDS011;10742;51.816;8.662;2022-12-07T11:10:19;10.93;;;3.73;;
21168;SDS011;10742;51.816;8.662;2022-12-07T11:14:25;11.07;;;3.73;;
21168;SDS011;10742;51.816;8.662;2022-12-07T11:25:29;10.23;;;3.83;;
21168;SDS011;10742;51.816;8.662;2022-12-07T11:29:05;14.60;;;4.17;;
21168;SDS011;10742;51.816;8.662;2022-12-07T11:36:43;16.47;;;4.27;;
21168;SDS011;10742;51.816;8.662;2022-12-07T11:47:20;12.33;;;3.80;;
21168;SDS011;10742;51.816;8.662;2022-12-07T11:50:48;13.43;;;3.60;;
21168;SDS011;10742;51.816;8.662;2022-12-07T11:54:16;10.67;;;3.73;;
21168;SDS011;10742;51.816;8.662;2022-12-07T11:57:44;12.37;;;3.20;;
21168;SDS011;10742;51.816;8.662;2022-12-07T12:08:46;11.77;;;3.20;;
21168;SDS011;10742;51.816;8.662;2022-12-07T12:16:35;10.27;;;3.10;;
21168;SDS011;10742;51.816;8.662;2022-12-07T12:20:23;17.50;;;3.40;;
21168;SDS011;10742;51.816;8.662;2022-12-07T12:24:12;11.17;;;3.20;;
21168;SDS011;10742;51.816;8.662;2022-12-07T12:27:38;12.30;;;3.33;;
21168;SDS011;10742;51.816;8.662;2022-12-07T12:31:10;13.90;;;3.53;;
21168;SDS011;10742;51.816;8.662;2022-12-07T12:34:39;9.60;;;3.40;;
21168;SDS011;10742;51.816;8.662;2022-12-07T12:38:32;13.13;;;3.60;;
21168;SDS011;10742;51.816;8.662;2022-12-07T12:41:56;11.70;;;4.07;;
21168;SDS011;10742;51.816;8.662;2022-12-07T12:45:26;12.00;;;4.17;;
21168;SDS011;10742;51.816;8.662;2022-12-07T12:48:49;11.57;;;3.63;;
21168;SDS011;10742;51.816;8.662;2022-12-07T12:59:18;11.47;;;3.80;;
21168;SDS011;10742;51.816;8.662;2022-12-07T13:09:46;12.83;;;3.73;;
21168;SDS011;10742;51.816;8.662;2022-12-07T13:16:37;15.53;;;6.10;;
21168;SDS011;10742;51.816;8.662;2022-12-07T13:23:29;12.50;;;3.00;;
21168;SDS011;10742;51.816;8.662;2022-12-07T13:26:54;10.73;;;3.10;;
21168;SDS011;10742;51.816;8.662;2022-12-07T13:30:19;10.73;;;2.90;;
21168;SDS011;10742;51.816;8.662;2022-12-07T13:33:42;14.60;;;5.30;;
21168;SDS011;10742;51.816;8.662;2022-12-07T13:40:39;7.77;;;2.90;;
21168;SDS011;10742;51.816;8.662;2022-12-07T13:44:07;7.50;;;2.90;;
21168;SDS011;10742;51.816;8.662;2022-12-07T13:48:16;12.13;;;3.20;;
21168;SDS011;10742;51.816;8.662;2022-12-07T13:58:15;16.93;;;3.00;;
21168;SDS011;10742;51.816;8.662;2022-12-07T14:01:37;44.37;;;22.63;;
21168;SDS011;10742;51.816;8.662;2022-12-07T14:05:15;14.07;;;6.27;;
21168;SDS011;10742;51.816;8.662;2022-12-07T14:08:45;13.83;;;4.33;;
21168;SDS011;10742;51.816;8.662;2022-12-07T14:12:07;10.50;;;5.10;;
21168;SDS011;10742;51.816;8.662;2022-12-07T14:15:29;16.13;;;7.03;;
21168;SDS011;10742;51.816;8.662;2022-12-07T14:18:52;14.00;;;5.33;;
21168;SDS011;10742;51.816;8.662;2022-12-07T14:33:04;27.77;;;10.10;;
21168;SDS011;10742;51.816;8.662;2022-12-07T14:36:28;25.90;;;11.67;;
21168;SDS011;10742;51.816;8.662;2022-12-07T14:39:50;9.47;;;4.00;;
21168;SDS011;10742;51.816;8.662;2022-12-07T14:43:12;50.70;;;19.63;;
21168;SDS011;10742;51.816;8.662;2022-12-07T14:46:36;39.27;;;15.23;;
21168;SDS011;10742;51.816;8.662;2022-12-07T14:49:57;43.87;;;15.57;;
21168;SDS011;10742;51.816;8.662;2022-12-07T14:53:21;67.37;;;22.20;;
21168;SDS011;10742;51.816;8.662;2022-12-07T14:56:50;434.87;;;117.23;;
21168;SDS011;10742;51.816;8.662;2022-12-07T15:00:15;237.17;;;65.57;;
21168;SDS011;10742;51.816;8.662;2022-12-07T15:03:38;198.80;;;59.47;;
21168;SDS011;10742;51.816;8.662;2022-12-07T15:07:01;71.87;;;25.10;;
21168;SDS011;10742;51.816;8.662;2022-12-07T15:10:25;55.67;;;20.47;;
21168;SDS011;10742;51.816;8.662;2022-12-07T15:13:52;28.20;;;10.30;;
21168;SDS011;10742;51.816;8.662;2022-12-07T15:17:29;20.83;;;7.23;;
21168;SDS011;10742;51.816;8.662;2022-12-07T15:20:51;25.90;;;9.17;;
21168;SDS011;10742;51.816;8.662;2022-12-07T15:23:54;40.07;;;15.80;;
21168;SDS011;10742;51.816;8.662;2022-12-07T15:26:57;66.00;;;24.37;;
21168;SDS011;10742;51.816;8.662;2022-12-07T15:29:59;140.57;;;49.23;;
21168;SDS011;10742;51.816;8.662;2022-12-07T15:33:01;47.37;;;17.53;;
21168;SDS011;10742;51.816;8.662;2022-12-07T15:36:04;33.07;;;13.90;;
21168;SDS011;10742;51.816;8.662;2022-12-07T15:39:07;28.43;;;10.10;;
21168;SDS011;10742;51.816;8.662;2022-12-07T15:42:15;24.67;;;8.57;;
21168;SDS011;10742;51.816;8.662;2022-12-07T15:45:17;21.90;;;6.47;;
21168;SDS011;10742;51.816;8.662;2022-12-07T15:48:20;15.00;;;4.80;;
21168;SDS011;10742;51.816;8.662;2022-12-07T15:51:30;10.67;;;4.40;;
21168;SDS011;10742;51.816;8.662;2022-12-07T15:54:32;27.03;;;8.00;;
21168;SDS011;10742;51.816;8.662;2022-12-07T15:57:35;27.43;;;8.73;;
21168;SDS011;10742;51.816;8.662;2022-12-07T16:00:39;23.27;;;5.97;;
21168;SDS011;10742;51.816;8.662;2022-12-07T16:03:42;14.40;;;4.23;;
21168;SDS011;10742;51.816;8.662;2022-12-07T16:06:45;12.33;;;4.93;;
21168;SDS011;10742;51.816;8.662;2022-12-07T16:09:48;15.60;;;5.70;;
21168;SDS011;10742;51.816;8.662;2022-12-07T16:12:51;16.90;;;6.23;;
21168;SDS011;10742;51.816;8.662;2022-12-07T16:15:55;14.00;;;4.97;;
21168;SDS011;10742;51.816;8.662;2022-12-07T16:18:57;29.00;;;10.20;;
21168;SDS011;10742;51.816;8.662;2022-12-07T16:21:59;46.17;;;21.83;;
21168;SDS011;10742;51.816;8.662;2022-12-07T16:25:02;27.20;;;11.97;;
21168;SDS011;10742;51.816;8.662;2022-12-07T16:28:05;27.33;;;10.50;;
21168;SDS011;10742;51.816;8.662;2022-12-07T16:31:09;77.82;;;32.63;;
21168;SDS011;10742;51.816;8.662;2022-12-07T16:34:18;130.34;;;52.10;;
21168;SDS011;10742;51.816;8.662;2022-12-07T16:37:21;37.80;;;16.80;;
21168;SDS011;10742;51.816;8.662;2022-12-07T16:40:23;32.77;;;11.30;;
21168;SDS011;10742;51.816;8.662;2022-12-07T16:43:25;40.57;;;12.47;;
21168;SDS011;10742;51.816;8.662;2022-12-07T16:46:28;31.77;;;13.73;;
21168;SDS011;10742;51.816;8.662;2022-12-07T16:49:30;28.00;;;11.43;;
21168;SDS011;10742;51.816;8.662;2022-12-07T16:52:33;25.80;;;7.80;;
21168;SDS011;10742;51.816;8.662;2022-12-07T16:55:36;29.87;;;11.17;;
21168;SDS011;10742;51.816;8.662;2022-12-07T16:58:46;59.97;;;21.57;;
21168;SDS011;10742;51.816;8.662;2022-12-07T17:01:50;69.33;;;25.90;;
21168;SDS011;10742;51.816;8.662;2022-12-07T17:04:53;47.87;;;18.50;;
21168;SDS011;10742;51.816;8.662;2022-12-07T17:07:56;39.27;;;17.57;;
21168;SDS011;10742;51.816;8.662;2022-12-07T17:10:58;45.17;;;18.80;;
21168;SDS011;10742;51.816;8.662;2022-12-07T17:14:01;31.50;;;13.97;;
21168;SDS011;10742;51.816;8.662;2022-12-07T17:17:22;57.60;;;25.70;;
21168;SDS011;10742;51.816;8.662;2022-12-07T17:20:26;39.50;;;17.23;;
21168;SDS011;10742;51.816;8.662;2022-12-07T17:23:29;27.40;;;11.93;;
21168;SDS011;10742;51.816;8.662;2022-12-07T17:26:32;19.20;;;7.87;;
21168;SDS011;10742;51.816;8.662;2022-12-07T17:29:36;16.63;;;7.47;;
21168;SDS011;10742;51.816;8.662;2022-12-07T17:32:38;17.20;;;6.97;;
21168;SDS011;10742;51.816;8.662;2022-12-07T17:35:41;14.97;;;5.77;;
21168;SDS011;10742;51.816;8.662;2022-12-07T17:38:44;11.73;;;5.40;;
21168;SDS011;10742;51.816;8.662;2022-12-07T17:41:47;16.77;;;6.07;;
21168;SDS011;10742;51.816;8.662;2022-12-07T17:45:09;11.67;;;4.87;;
21168;SDS011;10742;51.816;8.662;2022-12-07T17:48:13;12.50;;;5.17;;
21168;SDS011;10742;51.816;8.662;2022-12-07T17:51:15;13.47;;;5.10;;
21168;SDS011;10742;51.816;8.662;2022-12-07T17:54:36;20.73;;;5.47;;
21168;SDS011;10742;51.816;8.662;2022-12-07T17:57:38;22.90;;;8.07;;
21168;SDS011;10742;51.816;8.662;2022-12-07T18:04:11;17.27;;;6.50;;
21168;SDS011;10742;51.816;8.662;2022-12-07T18:07:14;14.70;;;6.10;;
21168;SDS011;10742;51.816;8.662;2022-12-07T18:10:17;8.23;;;4.40;;
21168;SDS011;10742;51.816;8.662;2022-12-07T18:13:19;13.90;;;6.30;;
21168;SDS011;10742;51.816;8.662;2022-12-07T18:16:36;15.17;;;4.70;;
21168;SDS011;10742;51.816;8.662;2022-12-07T18:19:39;16.73;;;4.70;;
21168;SDS011;10742;51.816;8.662;2022-12-07T18:22:42;17.13;;;6.10;;
21168;SDS011;10742;51.816;8.662;2022-12-07T18:25:47;19.07;;;6.60;;
21168;SDS011;10742;51.816;8.662;2022-12-07T18:28:53;13.40;;;5.40;;
21168;SDS011;10742;51.816;8.662;2022-12-07T18:31:56;22.30;;;6.60;;
21168;SDS011;10742;51.816;8.662;2022-12-07T18:34:58;22.67;;;7.57;;
21168;SDS011;10742;51.816;8.662;2022-12-07T18:38:02;19.57;;;7.07;;
21168;SDS011;10742;51.816;8.662;2022-12-07T18:41:08;20.13;;;6.47;;
21168;SDS011;10742;51.816;8.662;2022-12-07T18:44:13;18.50;;;6.40;;
21168;SDS011;10742;51.816;8.662;2022-12-07T18:47:17;13.87;;;5.90;;
21168;SDS011;10742;51.816;8.662;2022-12-07T18:50:20;20.87;;;5.50;;
21168;SDS011;10742;51.816;8.662;2022-12-07T18:53:22;16.83;;;7.13;;
21168;SDS011;10742;51.816;8.662;2022-12-07T18:56:26;13.07;;;4.93;;
21168;SDS011;10742;51.816;8.662;2022-12-07T18:59:29;20.40;;;6.43;;
21168;SDS011;10742;51.816;8.662;2022-12-07T19:02:51;16.80;;;6.03;;
21168;SDS011;10742;51.816;8.662;2022-12-07T19:05:55;15.97;;;5.67;;
21168;SDS011;10742;51.816;8.662;2022-12-07T19:08:58;17.47;;;5.90;;
21168;SDS011;10742;51.816;8.662;2022-12-07T19:12:01;20.23;;;6.87;;
21168;SDS011;10742;51.816;8.662;2022-12-07T19:15:06;17.53;;;6.77;;
21168;SDS011;10742;51.816;8.662;2022-12-07T19:18:10;18.97;;;7.00;;
21168;SDS011;10742;51.816;8.662;2022-12-07T19:21:13;79.10;;;31.10;;
21168;SDS011;10742;51.816;8.662;2022-12-07T19:24:15;516.87;;;149.93;;
21168;SDS011;10742;51.816;8.662;2022-12-07T19:27:22;562.87;;;150.60;;
21168;SDS011;10742;51.816;8.662;2022-12-07T19:30:25;786.53;;;228.70;;
21168;SDS011;10742;51.816;8.662;2022-12-07T19:33:29;456.43;;;111.17;;
21168;SDS011;10742;51.816;8.662;2022-12-07T19:36:32;717.30;;;187.47;;
21168;SDS011;10742;51.816;8.662;2022-12-07T19:39:34;773.57;;;209.17;;
21168;SDS011;10742;51.816;8.662;2022-12-07T19:42:36;1031.57;;;309.10;;
21168;SDS011;10742;51.816;8.662;2022-12-07T19:45:38;656.57;;;177.13;;
21168;SDS011;10742;51.816;8.662;2022-12-07T19:48:41;503.23;;;124.13;;
21168;SDS011;10742;51.816;8.662;2022-12-07T19:51:44;687.23;;;183.23;;
21168;SDS011;10742;51.816;8.662;2022-12-07T19:54:50;809.17;;;230.50;;
21168;SDS011;10742;51.816;8.662;2022-12-07T19:57:52;536.30;;;139.60;;
21168;SDS011;10742;51.816;8.662;2022-12-07T20:00:58;645.37;;;193.53;;
21168;SDS011;10742;51.816;8.662;2022-12-07T20:04:08;484.47;;;129.73;;
21168;SDS011;10742;51.816;8.662;2022-12-07T20:07:12;417.87;;;116.27;;
21168;SDS011;10742;51.816;8.662;2022-12-07T20:10:14;292.67;;;100.80;;
21168;SDS011;10742;51.816;8.662;2022-12-07T20:13:17;139.53;;;70.37;;
21168;SDS011;10742;51.816;8.662;2022-12-07T20:16:35;93.47;;;46.90;;
21168;SDS011;10742;51.816;8.662;2022-12-07T20:19:38;121.97;;;51.50;;
21168;SDS011;10742;51.816;8.662;2022-12-07T20:22:40;50.13;;;23.60;;
21168;SDS011;10742;51.816;8.662;2022-12-07T20:25:43;39.73;;;17.60;;
21168;SDS011;10742;51.816;8.662;2022-12-07T20:28:45;39.27;;;19.77;;
21168;SDS011;10742;51.816;8.662;2022-12-07T20:31:48;40.37;;;19.57;;
21168;SDS011;10742;51.816;8.662;2022-12-07T20:34:51;25.20;;;9.30;;
21168;SDS011;10742;51.816;8.662;2022-12-07T20:37:54;22.83;;;10.00;;
21168;SDS011;10742;51.816;8.662;2022-12-07T20:41:01;24.57;;;8.87;;
21168;SDS011;10742;51.816;8.662;2022-12-07T20:44:05;32.30;;;16.50;;
21168;SDS011;10742;51.816;8.662;2022-12-07T20:47:07;23.47;;;9.43;;
21168;SDS011;10742;51.816;8.662;2022-12-07T20:50:10;17.83;;;7.37;;
21168;SDS011;10742;51.816;8.662;2022-12-07T20:53:12;18.50;;;6.70;;
21168;SDS011;10742;51.816;8.662;2022-12-07T20:56:24;14.90;;;6.80;;
21168;SDS011;10742;51.816;8.662;2022-12-07T20:59:29;20.37;;;6.97;;
21168;SDS011;10742;51.816;8.662;2022-12-07T21:02:32;18.57;;;7.43;;
21168;SDS011;10742;51.816;8.662;2022-12-07T21:05:35;20.53;;;7.87;;
21168;SDS011;10742;51.816;8.662;2022-12-07T21:08:38;22.03;;;7.53;;
21168;SDS011;10742;51.816;8.662;2022-12-07T21:11:40;35.50;;;12.37;;
21168;SDS011;10742;51.816;8.662;2022-12-07T21:14:43;24.37;;;8.00;;
21168;SDS011;10742;51.816;8.662;2022-12-07T21:17:45;18.53;;;8.00;;
21168;SDS011;10742;51.816;8.662;2022-12-07T21:20:47;17.67;;;7.20;;
21168;SDS011;10742;51.816;8.662;2022-12-07T21:23:53;18.60;;;7.70;;
21168;SDS011;10742;51.816;8.662;2022-12-07T21:26:59;24.00;;;8.27;;
21168;SDS011;10742;51.816;8.662;2022-12-07T21:30:01;21.47;;;7.53;;
21168;SDS011;10742;51.816;8.662;2022-12-07T21:33:03;78.03;;;32.70;;
21168;SDS011;10742;51.816;8.662;2022-12-07T21:36:06;268.87;;;85.47;;
21168;SDS011;10742;51.816;8.662;2022-12-07T21:39:10;407.57;;;119.23;;
21168;SDS011;10742;51.816;8.662;2022-12-07T21:42:13;603.67;;;193.33;;
21168;SDS011;10742;51.816;8.662;2022-12-07T21:45:16;159.53;;;65.33;;
21168;SDS011;10742;51.816;8.662;2022-12-07T21:48:19;62.40;;;29.33;;
21168;SDS011;10742;51.816;8.662;2022-12-07T21:51:23;53.77;;;27.67;;
21168;SDS011;10742;51.816;8.662;2022-12-07T21:54:29;40.10;;;17.33;;